sensor_id;sensor_type;location;lat;lon;timestamp;pressure;altitude;pressure_sealevel;temperature;humidity
42411;BME280;28056;51.112;0.984;2023-05-02T00:04:52;101244.84;;;16.49;46.27
42411;BME280;28056;51.112;0.984;2023-05-02T00:07:19;101245.62;;;16.49;46.09
42411;BME280;28056;51.112;0.984;2023-05-02T00:09:47;101247.55;;;16.43;46.26
42411;BME280;28056;51.112;0.984;2023-05-02T00:12:14;101244.96;;;16.31;46.36
42411;BME280;28056;51.112;0.984;2023-05-02T00:14:42;101245.03;;;16.44;46.34
42411;BME280;28056;51.112;0.984;2023-05-02T00:17:15;101247.87;;;16.16;46.16
42411;BME280;28056;51.112;0.984;2023-05-02T00:19:43;101247.43;;;16.09;45.99
42411;BME280;28056;51.112;0.984;2023-05-02T00:22:10;101248.31;;;16.44;45.88
42411;BME280;28056;51.112;0.984;2023-05-02T00:24:38;101247.88;;;16.16;46.31
42411;BME280;28056;51.112;0.984;2023-05-02T00:27:06;101246.26;;;16.22;46.38
42411;BME280;28056;51.112;0.984;2023-05-02T00:29:33;101244.97;;;16.10;46.68
42411;BME280;28056;51.112;0.984;2023-05-02T00:32:01;101240.88;;;16.11;46.91
42411;BME280;28056;51.112;0.984;2023-05-02T00:34:29;101243.13;;;16.08;46.85
42411;BME280;28056;51.112;0.984;2023-05-02T00:36:56;101243.04;;;15.82;47.17
42411;BME280;28056;51.112;0.984;2023-05-02T00:39:24;101241.39;;;16.01;46.93
42411;BME280;28056;51.112;0.984;2023-05-02T00:41:56;101241.25;;;16.02;46.90
42411;BME280;28056;51.112;0.984;2023-05-02T00:44:23;101242.64;;;16.02;46.59
42411;BME280;28056;51.112;0.984;2023-05-02T00:46:51;101241.89;;;16.01;46.46
42411;BME280;28056;51.112;0.984;2023-05-02T00:49:18;101243.97;;;16.00;46.60
42411;BME280;28056;51.112;0.984;2023-05-02T00:51:46;101245.11;;;15.96;46.90
42411;BME280;28056;51.112;0.984;2023-05-02T00:54:14;101246.51;;;15.99;46.74
42411;BME280;28056;51.112;0.984;2023-05-02T00:56:41;101248.33;;;15.98;46.76
42411;BME280;28056;51.112;0.984;2023-05-02T00:59:09;101249.25;;;15.98;46.66
42411;BME280;28056;51.112;0.984;2023-05-02T01:01:48;101249.77;;;15.98;46.65
42411;BME280;28056;51.112;0.984;2023-05-02T01:04:25;101254.88;;;15.99;46.59
42411;BME280;28056;51.112;0.984;2023-05-02T01:07:05;101259.17;;;15.99;46.62
42411;BME280;28056;51.112;0.984;2023-05-02T01:09:44;101263.26;;;16.06;47.21
42411;BME280;28056;51.112;0.984;2023-05-02T01:12:24;101267.72;;;15.76;47.77
42411;BME280;28056;51.112;0.984;2023-05-02T01:14:55;101267.05;;;15.74;47.54
42411;BME280;28056;51.112;0.984;2023-05-02T01:17:26;101263.45;;;15.45;46.84
42411;BME280;28056;51.112;0.984;2023-05-02T01:19:57;101260.94;;;15.33;47.33
42411;BME280;28056;51.112;0.984;2023-05-02T01:22:28;101259.82;;;15.49;47.05
42411;BME280;28056;51.112;0.984;2023-05-02T01:25:03;101262.85;;;15.26;47.69
42411;BME280;28056;51.112;0.984;2023-05-02T01:27:42;101265.06;;;15.26;47.59
42411;BME280;28056;51.112;0.984;2023-05-02T01:30:14;101262.03;;;15.06;48.92
42411;BME280;28056;51.112;0.984;2023-05-02T01:32:46;101264.56;;;15.10;48.81
42411;BME280;28056;51.112;0.984;2023-05-02T01:35:15;101270.73;;;14.97;49.64
42411;BME280;28056;51.112;0.984;2023-05-02T01:37:44;101271.97;;;15.12;49.59
42411;BME280;28056;51.112;0.984;2023-05-02T01:40:14;101273.48;;;15.23;48.72
42411;BME280;28056;51.112;0.984;2023-05-02T01:42:44;101277.74;;;15.24;48.99
42411;BME280;28056;51.112;0.984;2023-05-02T01:45:13;101281.35;;;15.15;48.22
42411;BME280;28056;51.112;0.984;2023-05-02T01:47:43;101282.92;;;15.42;48.50
42411;BME280;28056;51.112;0.984;2023-05-02T01:50:16;101289.96;;;15.37;48.75
42411;BME280;28056;51.112;0.984;2023-05-02T01:52:46;101291.35;;;15.20;48.59
42411;BME280;28056;51.112;0.984;2023-05-02T01:55:15;101294.54;;;14.42;53.08
42411;BME280;28056;51.112;0.984;2023-05-02T01:57:46;101297.61;;;13.78;55.41
42411;BME280;28056;51.112;0.984;2023-05-02T02:00:16;101301.82;;;14.39;52.81
42411;BME280;28056;51.112;0.984;2023-05-02T02:02:46;101297.28;;;14.76;52.56
42411;BME280;28056;51.112;0.984;2023-05-02T02:05:27;101295.72;;;14.76;52.68
42411;BME280;28056;51.112;0.984;2023-05-02T02:09:10;101303.53;;;14.49;53.74
42411;BME280;28056;51.112;0.984;2023-05-02T02:11:45;101307.82;;;14.26;53.69
42411;BME280;28056;51.112;0.984;2023-05-02T02:14:17;101305.37;;;14.51;51.72
42411;BME280;28056;51.112;0.984;2023-05-02T02:16:45;101304.83;;;14.39;52.07
42411;BME280;28056;51.112;0.984;2023-05-02T02:19:15;101309.32;;;14.36;52.36
42411;BME280;28056;51.112;0.984;2023-05-02T02:21:46;101315.10;;;14.31;52.39
42411;BME280;28056;51.112;0.984;2023-05-02T02:24:16;101318.82;;;14.36;51.40
42411;BME280;28056;51.112;0.984;2023-05-02T02:26:45;101322.59;;;14.56;51.60
42411;BME280;28056;51.112;0.984;2023-05-02T02:29:12;101325.27;;;14.34;51.50
42411;BME280;28056;51.112;0.984;2023-05-02T02:31:40;101324.54;;;14.16;52.23
42411;BME280;28056;51.112;0.984;2023-05-02T02:34:08;101328.54;;;13.85;54.25
42411;BME280;28056;51.112;0.984;2023-05-02T02:36:44;101331.24;;;13.88;53.12
42411;BME280;28056;51.112;0.984;2023-05-02T02:39:19;101328.81;;;14.10;53.09
42411;BME280;28056;51.112;0.984;2023-05-02T02:41:59;101335.77;;;14.24;53.46
42411;BME280;28056;51.112;0.984;2023-05-02T02:44:33;101337.91;;;14.04;55.58
42411;BME280;28056;51.112;0.984;2023-05-02T02:47:08;101346.00;;;13.23;58.40
42411;BME280;28056;51.112;0.984;2023-05-02T02:49:46;101348.51;;;13.29;58.52
42411;BME280;28056;51.112;0.984;2023-05-02T02:52:23;101354.97;;;12.94;60.20
42411;BME280;28056;51.112;0.984;2023-05-02T02:54:58;101357.62;;;12.86;60.88
42411;BME280;28056;51.112;0.984;2023-05-02T02:57:35;101360.12;;;11.75;65.19
42411;BME280;28056;51.112;0.984;2023-05-02T03:00:10;101358.10;;;11.24;67.58
42411;BME280;28056;51.112;0.984;2023-05-02T03:02:41;101359.75;;;11.20;69.13
42411;BME280;28056;51.112;0.984;2023-05-02T03:05:10;101363.10;;;11.85;68.43
42411;BME280;28056;51.112;0.984;2023-05-02T03:07:37;101363.35;;;12.11;66.98
42411;BME280;28056;51.112;0.984;2023-05-02T03:10:06;101364.44;;;11.60;68.42
42411;BME280;28056;51.112;0.984;2023-05-02T03:12:34;101364.30;;;12.25;66.41
42411;BME280;28056;51.112;0.984;2023-05-02T03:15:13;101367.01;;;12.78;64.05
42411;BME280;28056;51.112;0.984;2023-05-02T03:17:44;101370.87;;;13.25;61.79
42411;BME280;28056;51.112;0.984;2023-05-02T03:20:12;101369.07;;;13.03;63.36
42411;BME280;28056;51.112;0.984;2023-05-02T03:22:39;101372.14;;;12.49;64.22
42411;BME280;28056;51.112;0.984;2023-05-02T03:25:07;101367.71;;;11.96;65.86
42411;BME280;28056;51.112;0.984;2023-05-02T03:27:35;101369.43;;;11.11;67.74
42411;BME280;28056;51.112;0.984;2023-05-02T03:30:02;101375.69;;;11.66;66.44
42411;BME280;28056;51.112;0.984;2023-05-02T03:32:30;101370.38;;;11.28;67.98
42411;BME280;28056;51.112;0.984;2023-05-02T03:34:57;101372.66;;;11.29;67.45
42411;BME280;28056;51.112;0.984;2023-05-02T03:37:24;101376.05;;;11.35;67.80
42411;BME280;28056;51.112;0.984;2023-05-02T03:39:51;101376.04;;;11.40;67.57
42411;BME280;28056;51.112;0.984;2023-05-02T03:42:19;101380.45;;;11.16;68.78
42411;BME280;28056;51.112;0.984;2023-05-02T03:44:46;101383.01;;;10.35;71.26
42411;BME280;28056;51.112;0.984;2023-05-02T03:47:13;101383.75;;;10.49;71.00
42411;BME280;28056;51.112;0.984;2023-05-02T03:49:41;101389.12;;;11.05;70.30
42411;BME280;28056;51.112;0.984;2023-05-02T03:52:07;101394.45;;;10.81;70.57
42411;BME280;28056;51.112;0.984;2023-05-02T03:54:35;101399.33;;;10.61;71.66
42411;BME280;28056;51.112;0.984;2023-05-02T03:57:02;101404.93;;;11.13;69.74
42411;BME280;28056;51.112;0.984;2023-05-02T03:59:32;101405.34;;;11.68;68.21
42411;BME280;28056;51.112;0.984;2023-05-02T04:01:59;101408.44;;;11.65;67.51
42411;BME280;28056;51.112;0.984;2023-05-02T04:04:27;101411.28;;;10.66;70.02
42411;BME280;28056;51.112;0.984;2023-05-02T04:06:55;101410.88;;;11.54;68.44
42411;BME280;28056;51.112;0.984;2023-05-02T04:09:22;101412.58;;;11.50;68.07
42411;BME280;28056;51.112;0.984;2023-05-02T04:11:49;101416.21;;;11.04;69.90
42411;BME280;28056;51.112;0.984;2023-05-02T04:14:17;101418.42;;;10.75;71.49
42411;BME280;28056;51.112;0.984;2023-05-02T04:16:47;101423.77;;;11.26;69.80
42411;BME280;28056;51.112;0.984;2023-05-02T04:19:15;101426.09;;;11.63;67.83
42411;BME280;28056;51.112;0.984;2023-05-02T04:21:42;101431.32;;;11.02;70.43
42411;BME280;28056;51.112;0.984;2023-05-02T04:24:12;101434.90;;;11.75;68.17
42411;BME280;28056;51.112;0.984;2023-05-02T04:26:39;101436.07;;;11.87;68.28
42411;BME280;28056;51.112;0.984;2023-05-02T04:29:07;101440.96;;;10.74;71.55
42411;BME280;28056;51.112;0.984;2023-05-02T04:31:35;101444.11;;;11.17;70.04
42411;BME280;28056;51.112;0.984;2023-05-02T04:34:03;101450.03;;;11.40;68.98
42411;BME280;28056;51.112;0.984;2023-05-02T04:36:29;101459.02;;;11.86;68.33
42411;BME280;28056;51.112;0.984;2023-05-02T04:38:56;101462.37;;;11.56;68.31
42411;BME280;28056;51.112;0.984;2023-05-02T04:41:24;101469.02;;;11.50;68.72
42411;BME280;28056;51.112;0.984;2023-05-02T04:43:52;101471.61;;;11.82;67.77
42411;BME280;28056;51.112;0.984;2023-05-02T04:46:20;101469.56;;;12.23;65.25
42411;BME280;28056;51.112;0.984;2023-05-02T04:48:47;101470.15;;;11.87;66.95
42411;BME280;28056;51.112;0.984;2023-05-02T04:51:15;101480.11;;;11.81;67.83
42411;BME280;28056;51.112;0.984;2023-05-02T04:53:42;101483.07;;;11.71;67.50
42411;BME280;28056;51.112;0.984;2023-05-02T04:56:09;101478.52;;;11.97;66.72
42411;BME280;28056;51.112;0.984;2023-05-02T04:58:37;101479.99;;;12.65;65.06
42411;BME280;28056;51.112;0.984;2023-05-02T05:01:04;101479.63;;;12.24;66.21
42411;BME280;28056;51.112;0.984;2023-05-02T05:03:31;101486.05;;;12.25;67.28
42411;BME280;28056;51.112;0.984;2023-05-02T05:05:59;101492.18;;;11.52;68.77
42411;BME280;28056;51.112;0.984;2023-05-02T05:08:28;101498.75;;;11.06;70.24
42411;BME280;28056;51.112;0.984;2023-05-02T05:10:55;101503.82;;;11.50;70.73
42411;BME280;28056;51.112;0.984;2023-05-02T05:13:23;101505.30;;;11.37;70.59
42411;BME280;28056;51.112;0.984;2023-05-02T05:15:50;101507.81;;;11.84;69.40
42411;BME280;28056;51.112;0.984;2023-05-02T05:18:19;101509.27;;;12.10;67.09
42411;BME280;28056;51.112;0.984;2023-05-02T05:20:46;101513.21;;;12.11;67.53
42411;BME280;28056;51.112;0.984;2023-05-02T05:23:14;101510.93;;;12.52;65.45
42411;BME280;28056;51.112;0.984;2023-05-02T05:25:41;101520.78;;;11.64;67.92
42411;BME280;28056;51.112;0.984;2023-05-02T05:28:09;101528.26;;;12.15;66.10
42411;BME280;28056;51.112;0.984;2023-05-02T05:30:37;101535.94;;;12.04;66.57
42411;BME280;28056;51.112;0.984;2023-05-02T05:33:04;101538.52;;;12.21;67.27
42411;BME280;28056;51.112;0.984;2023-05-02T05:35:31;101540.01;;;11.40;68.19
42411;BME280;28056;51.112;0.984;2023-05-02T05:37:58;101541.23;;;11.47;67.89
42411;BME280;28056;51.112;0.984;2023-05-02T05:40:30;101547.13;;;11.90;66.66
42411;BME280;28056;51.112;0.984;2023-05-02T05:42:57;101552.94;;;11.89;66.77
42411;BME280;28056;51.112;0.984;2023-05-02T05:45:25;101556.77;;;12.19;65.76
42411;BME280;28056;51.112;0.984;2023-05-02T05:47:53;101558.96;;;12.48;64.82
42411;BME280;28056;51.112;0.984;2023-05-02T05:50:20;101562.36;;;12.52;63.98
42411;BME280;28056;51.112;0.984;2023-05-02T05:52:48;101567.34;;;12.69;63.91
42411;BME280;28056;51.112;0.984;2023-05-02T05:55:16;101575.11;;;12.56;64.03
42411;BME280;28056;51.112;0.984;2023-05-02T05:57:44;101576.90;;;11.97;66.33
42411;BME280;28056;51.112;0.984;2023-05-02T06:00:13;101575.90;;;11.59;68.03
42411;BME280;28056;51.112;0.984;2023-05-02T06:02:40;101571.94;;;11.08;70.53
42411;BME280;28056;51.112;0.984;2023-05-02T06:05:08;101578.34;;;12.44;65.32
42411;BME280;28056;51.112;0.984;2023-05-02T06:07:36;101579.59;;;11.67;67.41
42411;BME280;28056;51.112;0.984;2023-05-02T06:10:03;101582.40;;;11.96;66.84
42411;BME280;28056;51.112;0.984;2023-05-02T06:12:30;101581.88;;;11.94;66.50
42411;BME280;28056;51.112;0.984;2023-05-02T06:14:58;101582.10;;;12.23;66.92
42411;BME280;28056;51.112;0.984;2023-05-02T06:17:26;101584.86;;;11.52;67.90
42411;BME280;28056;51.112;0.984;2023-05-02T06:19:54;101593.07;;;12.64;65.65
42411;BME280;28056;51.112;0.984;2023-05-02T06:22:21;101595.93;;;11.95;67.08
42411;BME280;28056;51.112;0.984;2023-05-02T06:24:50;101599.33;;;12.34;65.70
42411;BME280;28056;51.112;0.984;2023-05-02T06:27:17;101600.74;;;11.71;67.42
42411;BME280;28056;51.112;0.984;2023-05-02T06:29:45;101605.36;;;12.87;63.94
42411;BME280;28056;51.112;0.984;2023-05-02T06:32:13;101609.53;;;12.20;64.66
42411;BME280;28056;51.112;0.984;2023-05-02T06:34:40;101610.61;;;12.32;65.45
42411;BME280;28056;51.112;0.984;2023-05-02T06:37:08;101617.49;;;12.40;64.63
42411;BME280;28056;51.112;0.984;2023-05-02T06:39:36;101611.85;;;11.71;66.20
42411;BME280;28056;51.112;0.984;2023-05-02T06:42:03;101615.00;;;12.21;65.94
42411;BME280;28056;51.112;0.984;2023-05-02T06:44:30;101618.14;;;12.39;64.46
42411;BME280;28056;51.112;0.984;2023-05-02T06:46:58;101619.54;;;12.28;65.28
42411;BME280;28056;51.112;0.984;2023-05-02T06:49:25;101622.46;;;12.43;64.85
42411;BME280;28056;51.112;0.984;2023-05-02T06:51:52;101622.71;;;11.58;67.21
42411;BME280;28056;51.112;0.984;2023-05-02T06:54:19;101625.81;;;12.78;63.86
42411;BME280;28056;51.112;0.984;2023-05-02T06:56:47;101629.56;;;12.38;65.69
42411;BME280;28056;51.112;0.984;2023-05-02T06:59:15;101630.82;;;12.92;64.27
42411;BME280;28056;51.112;0.984;2023-05-02T07:01:43;101632.64;;;13.05;63.60
42411;BME280;28056;51.112;0.984;2023-05-02T07:04:10;101639.95;;;12.42;64.84
42411;BME280;28056;51.112;0.984;2023-05-02T07:06:39;101643.19;;;12.53;63.97
42411;BME280;28056;51.112;0.984;2023-05-02T07:09:06;101648.69;;;12.01;64.61
42411;BME280;28056;51.112;0.984;2023-05-02T07:11:34;101653.80;;;12.60;63.57
42411;BME280;28056;51.112;0.984;2023-05-02T07:14:02;101654.88;;;12.57;62.63
42411;BME280;28056;51.112;0.984;2023-05-02T07:16:30;101651.45;;;11.72;63.28
42411;BME280;28056;51.112;0.984;2023-05-02T07:18:57;101654.52;;;11.64;64.55
42411;BME280;28056;51.112;0.984;2023-05-02T07:21:25;101656.59;;;11.44;63.73
42411;BME280;28056;51.112;0.984;2023-05-02T07:23:53;101662.27;;;12.46;62.21
42411;BME280;28056;51.112;0.984;2023-05-02T07:26:20;101658.29;;;12.26;61.95
42411;BME280;28056;51.112;0.984;2023-05-02T07:28:47;101661.45;;;12.03;62.61
42411;BME280;28056;51.112;0.984;2023-05-02T07:31:15;101655.61;;;11.81;62.77
42411;BME280;28056;51.112;0.984;2023-05-02T07:33:43;101659.43;;;11.89;62.87
42411;BME280;28056;51.112;0.984;2023-05-02T07:36:11;101650.99;;;11.25;63.17
42411;BME280;28056;51.112;0.984;2023-05-02T07:38:38;101658.58;;;11.43;64.02
42411;BME280;28056;51.112;0.984;2023-05-02T07:41:06;101661.56;;;12.89;60.88
42411;BME280;28056;51.112;0.984;2023-05-02T07:43:34;101664.02;;;12.13;61.99
42411;BME280;28056;51.112;0.984;2023-05-02T07:46:03;101663.96;;;12.18;61.14
42411;BME280;28056;51.112;0.984;2023-05-02T07:48:31;101666.70;;;12.60;60.64
42411;BME280;28056;51.112;0.984;2023-05-02T07:51:05;101669.34;;;12.27;62.50
42411;BME280;28056;51.112;0.984;2023-05-02T07:53:32;101673.89;;;13.08;60.46
42411;BME280;28056;51.112;0.984;2023-05-02T07:56:02;101675.85;;;12.07;59.59
42411;BME280;28056;51.112;0.984;2023-05-02T07:58:29;101675.58;;;12.70;59.53
42411;BME280;28056;51.112;0.984;2023-05-02T08:00:57;101677.35;;;12.66;58.27
42411;BME280;28056;51.112;0.984;2023-05-02T08:03:24;101674.81;;;11.90;59.62
42411;BME280;28056;51.112;0.984;2023-05-02T08:05:52;101676.97;;;12.63;57.19
42411;BME280;28056;51.112;0.984;2023-05-02T08:08:19;101679.43;;;13.02;57.27
42411;BME280;28056;51.112;0.984;2023-05-02T08:10:47;101681.53;;;12.40;59.33
42411;BME280;28056;51.112;0.984;2023-05-02T08:13:14;101687.99;;;13.14;58.01
42411;BME280;28056;51.112;0.984;2023-05-02T08:15:41;101683.65;;;13.74;54.18
42411;BME280;28056;51.112;0.984;2023-05-02T08:18:09;101690.88;;;13.35;54.85
42411;BME280;28056;51.112;0.984;2023-05-02T08:20:36;101689.93;;;12.96;56.17
42411;BME280;28056;51.112;0.984;2023-05-02T08:23:04;101697.12;;;13.02;54.84
42411;BME280;28056;51.112;0.984;2023-05-02T08:25:32;101692.77;;;14.12;54.83
42411;BME280;28056;51.112;0.984;2023-05-02T08:27:59;101698.08;;;12.67;55.42
42411;BME280;28056;51.112;0.984;2023-05-02T08:30:26;101696.04;;;13.84;53.77
42411;BME280;28056;51.112;0.984;2023-05-02T08:32:54;101693.77;;;14.36;53.56
42411;BME280;28056;51.112;0.984;2023-05-02T08:35:22;101697.77;;;13.73;53.01
42411;BME280;28056;51.112;0.984;2023-05-02T08:37:49;101700.66;;;14.10;54.14
42411;BME280;28056;51.112;0.984;2023-05-02T08:40:17;101701.42;;;14.69;52.74
42411;BME280;28056;51.112;0.984;2023-05-02T08:42:47;101701.59;;;14.61;51.86
42411;BME280;28056;51.112;0.984;2023-05-02T08:45:14;101705.25;;;13.42;53.46
42411;BME280;28056;51.112;0.984;2023-05-02T08:47:47;101708.10;;;14.24;53.86
42411;BME280;28056;51.112;0.984;2023-05-02T08:50:15;101717.82;;;14.72;52.41
42411;BME280;28056;51.112;0.984;2023-05-02T08:52:45;101718.94;;;14.52;54.73
42411;BME280;28056;51.112;0.984;2023-05-02T08:55:13;101720.03;;;13.88;54.06
42411;BME280;28056;51.112;0.984;2023-05-02T08:57:42;101717.20;;;14.12;54.13
42411;BME280;28056;51.112;0.984;2023-05-02T09:00:11;101710.26;;;13.67;54.35
42411;BME280;28056;51.112;0.984;2023-05-02T09:02:50;101710.31;;;14.30;53.09
42411;BME280;28056;51.112;0.984;2023-05-02T09:05:23;101716.90;;;14.82;50.88
42411;BME280;28056;51.112;0.984;2023-05-02T09:07:50;101720.34;;;14.63;55.42
42411;BME280;28056;51.112;0.984;2023-05-02T09:10:18;101718.76;;;14.74;51.67
42411;BME280;28056;51.112;0.984;2023-05-02T09:12:47;101721.02;;;15.81;52.11
42411;BME280;28056;51.112;0.984;2023-05-02T09:15:16;101718.79;;;15.40;48.68
42411;BME280;28056;51.112;0.984;2023-05-02T09:17:45;101722.28;;;15.68;48.98
42411;BME280;28056;51.112;0.984;2023-05-02T09:20:14;101720.28;;;15.87;47.82
42411;BME280;28056;51.112;0.984;2023-05-02T09:22:48;101721.14;;;16.03;47.95
42411;BME280;28056;51.112;0.984;2023-05-02T09:25:15;101721.52;;;16.41;47.12
42411;BME280;28056;51.112;0.984;2023-05-02T09:27:49;101729.63;;;16.46;47.00
42411;BME280;28056;51.112;0.984;2023-05-02T09:30:19;101732.46;;;16.08;45.79
42411;BME280;28056;51.112;0.984;2023-05-02T09:32:48;101730.83;;;15.94;45.42
42411;BME280;28056;51.112;0.984;2023-05-02T09:35:15;101732.52;;;15.62;46.15
42411;BME280;28056;51.112;0.984;2023-05-02T09:37:43;101738.31;;;15.20;46.47
42411;BME280;28056;51.112;0.984;2023-05-02T09:40:11;101740.01;;;14.83;48.16
42411;BME280;28056;51.112;0.984;2023-05-02T09:42:38;101743.54;;;15.74;46.87
42411;BME280;28056;51.112;0.984;2023-05-02T09:45:06;101747.19;;;15.43;48.27
42411;BME280;28056;51.112;0.984;2023-05-02T09:47:35;101747.67;;;15.66;48.70
42411;BME280;28056;51.112;0.984;2023-05-02T09:50:02;101751.32;;;16.22;46.40
42411;BME280;28056;51.112;0.984;2023-05-02T09:52:30;101752.24;;;15.82;46.98
42411;BME280;28056;51.112;0.984;2023-05-02T09:54:57;101755.12;;;16.28;45.02
42411;BME280;28056;51.112;0.984;2023-05-02T09:57:39;101763.71;;;14.56;49.43
42411;BME280;28056;51.112;0.984;2023-05-02T10:00:08;101770.44;;;16.64;45.81
42411;BME280;28056;51.112;0.984;2023-05-02T10:02:35;101777.05;;;16.79;48.29
42411;BME280;28056;51.112;0.984;2023-05-02T10:05:07;101772.60;;;16.28;45.03
42411;BME280;28056;51.112;0.984;2023-05-02T10:07:37;101770.85;;;16.39;43.95
42411;BME280;28056;51.112;0.984;2023-05-02T10:10:07;101775.37;;;17.49;46.69
42411;BME280;28056;51.112;0.984;2023-05-02T10:12:38;101777.00;;;17.70;45.02
42411;BME280;28056;51.112;0.984;2023-05-02T10:15:09;101778.35;;;17.90;44.38
42411;BME280;28056;51.112;0.984;2023-05-02T10:17:43;101775.22;;;18.71;39.89
42411;BME280;28056;51.112;0.984;2023-05-02T10:20:21;101783.19;;;18.52;43.93
42411;BME280;28056;51.112;0.984;2023-05-02T10:22:51;101782.53;;;18.81;40.96
42411;BME280;28056;51.112;0.984;2023-05-02T10:25:19;101785.08;;;18.57;41.49
42411;BME280;28056;51.112;0.984;2023-05-02T10:27:46;101786.66;;;18.58;39.99
42411;BME280;28056;51.112;0.984;2023-05-02T10:30:15;101791.40;;;18.01;39.95
42411;BME280;28056;51.112;0.984;2023-05-02T10:32:45;101785.33;;;18.27;41.03
42411;BME280;28056;51.112;0.984;2023-05-02T10:35:15;101787.18;;;18.86;39.21
42411;BME280;28056;51.112;0.984;2023-05-02T10:37:43;101792.97;;;18.82;40.24
42411;BME280;28056;51.112;0.984;2023-05-02T10:40:11;101793.97;;;19.32;39.93
42411;BME280;28056;51.112;0.984;2023-05-02T10:42:42;101791.33;;;18.91;38.54
42411;BME280;28056;51.112;0.984;2023-05-02T10:45:12;101789.37;;;18.66;40.53
42411;BME280;28056;51.112;0.984;2023-05-02T10:48:12;101789.11;;;20.13;38.85
42411;BME280;28056;51.112;0.984;2023-05-02T10:50:43;101785.66;;;19.13;37.16
42411;BME280;28056;51.112;0.984;2023-05-02T10:53:25;101790.76;;;19.86;37.81
42411;BME280;28056;51.112;0.984;2023-05-02T10:56:11;101791.24;;;19.55;37.57
42411;BME280;28056;51.112;0.984;2023-05-02T10:58:40;101786.52;;;19.46;36.88
42411;BME280;28056;51.112;0.984;2023-05-02T11:01:40;101791.22;;;20.13;38.78
42411;BME280;28056;51.112;0.984;2023-05-02T11:04:09;101790.78;;;19.29;38.78
42411;BME280;28056;51.112;0.984;2023-05-02T11:07:16;101787.91;;;19.43;39.23
42411;BME280;28056;51.112;0.984;2023-05-02T11:09:44;101784.93;;;19.54;38.63
42411;BME280;28056;51.112;0.984;2023-05-02T11:12:42;101784.20;;;19.83;38.67
42411;BME280;28056;51.112;0.984;2023-05-02T11:15:10;101782.34;;;20.77;36.96
42411;BME280;28056;51.112;0.984;2023-05-02T11:17:58;101787.23;;;21.09;40.46
42411;BME280;28056;51.112;0.984;2023-05-02T11:20:26;101787.42;;;21.02;34.18
42411;BME280;28056;51.112;0.984;2023-05-02T11:22:56;101795.30;;;21.85;33.70
42411;BME280;28056;51.112;0.984;2023-05-02T11:25:34;101798.08;;;21.65;38.46
42411;BME280;28056;51.112;0.984;2023-05-02T11:28:03;101797.30;;;21.27;37.65
42411;BME280;28056;51.112;0.984;2023-05-02T11:30:39;101802.46;;;22.29;35.28
42411;BME280;28056;51.112;0.984;2023-05-02T11:33:16;101804.82;;;22.95;32.93
42411;BME280;28056;51.112;0.984;2023-05-02T11:35:45;101805.54;;;21.36;34.25
42411;BME280;28056;51.112;0.984;2023-05-02T11:38:15;101802.63;;;20.74;33.81
42411;BME280;28056;51.112;0.984;2023-05-02T11:40:54;101803.60;;;20.70;33.33
42411;BME280;28056;51.112;0.984;2023-05-02T11:43:24;101808.70;;;21.78;33.50
42411;BME280;28056;51.112;0.984;2023-05-02T11:45:52;101808.40;;;21.15;34.13
42411;BME280;28056;51.112;0.984;2023-05-02T11:48:21;101809.76;;;21.65;32.39
42411;BME280;28056;51.112;0.984;2023-05-02T11:50:50;101808.04;;;21.10;33.81
42411;BME280;28056;51.112;0.984;2023-05-02T11:53:20;101808.17;;;21.53;32.80
42411;BME280;28056;51.112;0.984;2023-05-02T11:55:48;101802.80;;;21.03;34.43
42411;BME280;28056;51.112;0.984;2023-05-02T11:58:18;101805.65;;;21.20;36.38
42411;BME280;28056;51.112;0.984;2023-05-02T12:00:46;101813.55;;;20.36;35.46
42411;BME280;28056;51.112;0.984;2023-05-02T12:03:25;101818.26;;;20.94;34.20
42411;BME280;28056;51.112;0.984;2023-05-02T12:05:53;101820.79;;;20.73;34.87
42411;BME280;28056;51.112;0.984;2023-05-02T12:08:22;101819.61;;;19.96;32.77
42411;BME280;28056;51.112;0.984;2023-05-02T12:10:51;101824.57;;;20.72;34.04
42411;BME280;28056;51.112;0.984;2023-05-02T12:13:21;101822.64;;;20.74;33.35
42411;BME280;28056;51.112;0.984;2023-05-02T12:15:50;101821.70;;;21.33;31.41
42411;BME280;28056;51.112;0.984;2023-05-02T12:18:19;101824.17;;;20.46;34.65
42411;BME280;28056;51.112;0.984;2023-05-02T12:20:47;101826.45;;;20.38;35.93
42411;BME280;28056;51.112;0.984;2023-05-02T12:23:16;101827.07;;;20.17;34.03
42411;BME280;28056;51.112;0.984;2023-05-02T12:25:44;101829.51;;;21.33;37.04
42411;BME280;28056;51.112;0.984;2023-05-02T12:28:11;101826.87;;;21.18;40.82
42411;BME280;28056;51.112;0.984;2023-05-02T12:30:39;101820.47;;;21.03;37.72
42411;BME280;28056;51.112;0.984;2023-05-02T12:33:07;101822.00;;;22.33;33.05
42411;BME280;28056;51.112;0.984;2023-05-02T12:35:35;101823.02;;;21.13;35.94
42411;BME280;28056;51.112;0.984;2023-05-02T12:38:12;101827.37;;;21.06;34.21
42411;BME280;28056;51.112;0.984;2023-05-02T12:40:47;101832.07;;;20.68;33.56
42411;BME280;28056;51.112;0.984;2023-05-02T12:43:14;101843.97;;;22.35;38.66
42411;BME280;28056;51.112;0.984;2023-05-02T12:45:42;101839.82;;;22.72;31.19
42411;BME280;28056;51.112;0.984;2023-05-02T12:48:18;101844.58;;;22.97;33.67
42411;BME280;28056;51.112;0.984;2023-05-02T12:50:45;101846.29;;;22.75;33.50
42411;BME280;28056;51.112;0.984;2023-05-02T12:53:14;101846.70;;;23.10;32.92
42411;BME280;28056;51.112;0.984;2023-05-02T12:55:42;101842.98;;;22.49;29.80
42411;BME280;28056;51.112;0.984;2023-05-02T12:58:11;101847.27;;;22.48;30.10
42411;BME280;28056;51.112;0.984;2023-05-02T13:00:39;101852.70;;;22.47;31.30
42411;BME280;28056;51.112;0.984;2023-05-02T13:03:08;101857.54;;;22.51;32.79
42411;BME280;28056;51.112;0.984;2023-05-02T13:05:36;101858.67;;;22.33;34.08
42411;BME280;28056;51.112;0.984;2023-05-02T13:08:04;101856.52;;;22.51;31.31